createdAt,value
2018-01-04T00:01:13.130Z,96221.27
2018-01-04T00:02:19.404Z,96219.46
2018-01-04T00:03:24.401Z,96223.50
2018-01-04T00:04:45.815Z,96212.58
2018-01-04T00:05:51.179Z,96217.86
2018-01-04T00:06:56.177Z,96222.20
2018-01-04T00:08:03.762Z,96204.22
2018-01-04T00:09:08.833Z,96225.01
2018-01-04T00:10:14.558Z,96205.80
2018-01-04T00:11:19.464Z,96223.40
2018-01-04T00:12:26.902Z,96211.19
2018-01-04T00:13:32.040Z,96231.92
2018-01-04T00:14:37.634Z,96232.62
2018-01-04T00:15:42.518Z,96227.48
2018-01-04T00:16:47.424Z,96226.94
2018-01-04T00:17:52.514Z,96206.95
2018-01-04T00:18:57.831Z,96224.15
2018-01-04T00:20:02.853Z,96217.92
2018-01-04T00:21:07.831Z,96227.90
2018-01-04T00:22:13.810Z,96213.84
2018-01-04T00:23:18.869Z,96213.84
2018-01-04T00:24:23.903Z,96219.76
2018-01-04T00:25:29.204Z,96223.77
2018-01-04T00:26:34.146Z,96216.03
2018-01-04T00:27:39.021Z,96211.34
2018-01-04T00:28:44.032Z,96211.73
2018-01-04T00:29:48.893Z,96207.80
2018-01-04T00:30:53.780Z,96205.45
2018-01-04T00:31:59.079Z,96210.29
2018-01-04T00:33:03.963Z,96214.17
2018-01-04T00:34:08.794Z,96191.66
2018-01-04T00:35:13.637Z,96206.86
2018-01-04T00:36:18.675Z,96211.14
2018-01-04T00:37:23.623Z,96214.63
2018-01-04T00:38:28.886Z,96187.06
2018-01-04T00:39:33.774Z,96202.77
2018-01-04T00:40:38.725Z,96196.04
2018-01-04T00:41:43.697Z,96201.88
2018-01-04T00:42:49.140Z,96205.02
2018-01-04T00:43:54.174Z,96204.91
2018-01-04T00:44:59.330Z,96210.75
2018-01-04T00:46:04.196Z,96217.47
2018-01-04T00:47:09.146Z,96214.98
2018-01-04T00:48:14.069Z,96215.03
2018-01-04T00:49:19.132Z,96211.14
2018-01-04T00:50:24.042Z,96216.42
2018-01-04T00:51:29.943Z,96199.83
2018-01-04T00:52:34.849Z,96171.96
2018-01-04T00:53:39.812Z,96199.36
2018-01-04T00:54:44.869Z,96203.09
2018-01-04T00:55:49.823Z,96197.81
2018-01-04T00:56:54.827Z,96210.67
2018-01-04T00:58:00.143Z,96193.47
2018-01-04T00:59:05.122Z,96202.02
2018-01-04T01:00:10.173Z,96182.73
2018-01-04T01:01:15.180Z,96210.48
2018-01-04T01:02:20.228Z,96243.74
2018-01-04T01:03:25.814Z,96216.28
2018-01-04T01:04:31.070Z,96217.03
2018-01-04T01:05:36.093Z,96227.64
2018-01-04T01:06:41.050Z,96215.16
2018-01-04T01:07:46.018Z,96197.48
2018-01-04T01:08:51.037Z,96211.02
2018-01-04T01:09:56.095Z,96217.52
2018-01-04T01:11:01.424Z,96192.20
2018-01-04T01:12:06.696Z,96182.98
2018-01-04T01:13:11.732Z,96194.72
2018-01-04T01:14:16.723Z,96193.52
2018-01-04T01:15:21.582Z,96220.15
2018-01-04T01:16:26.383Z,96182.11
2018-01-04T01:17:31.862Z,96201.05
2018-01-04T01:18:36.842Z,96203.14
2018-01-04T01:19:41.848Z,96205.64
2018-01-04T01:20:46.727Z,96205.04
2018-01-04T01:21:51.622Z,96201.55
2018-01-04T01:22:56.502Z,96206.34
2018-01-04T01:24:01.755Z,96203.69
2018-01-04T01:25:06.874Z,96220.20
2018-01-04T01:26:11.960Z,96205.94
2018-01-04T01:27:16.930Z,96220.09
2018-01-04T01:28:21.943Z,96204.54
2018-01-04T01:29:26.922Z,96220.00
2018-01-04T01:30:32.214Z,96223.95
2018-01-04T01:31:37.184Z,96217.70
2018-01-04T01:32:42.053Z,96209.23
2018-01-04T01:33:47.081Z,96207.98
2018-01-04T01:34:52.080Z,96216.41
2018-01-04T01:35:57.737Z,96207.38
2018-01-04T01:37:03.026Z,96226.58
2018-01-04T01:38:08.076Z,96220.61
2018-01-04T01:39:13.044Z,96210.34
2018-01-04T01:40:18.010Z,96195.07
2018-01-04T01:41:22.986Z,96205.06
2018-01-04T01:42:27.941Z,96223.16
2018-01-04T01:43:33.184Z,96217.12
2018-01-04T01:44:38.206Z,96212.89
2018-01-04T01:45:43.211Z,96207.55
2018-01-04T01:46:48.215Z,96197.03
2018-01-04T01:47:53.164Z,96221.21
2018-01-04T01:49:02.319Z,96223.80
2018-01-04T01:50:07.286Z,96229.53
2018-01-04T01:51:12.248Z,96232.32
2018-01-04T01:52:17.284Z,96224.05
2018-01-04T01:53:22.272Z,96246.43
2018-01-04T01:54:27.269Z,96147.28
2018-01-04T01:55:32.629Z,96192.84
2018-01-04T01:56:37.583Z,96214.48
2018-01-04T01:57:42.556Z,96210.09
2018-01-04T01:58:47.494Z,96220.76
2018-01-04T01:59:52.451Z,96224.30
2018-01-04T02:00:57.410Z,96215.23
2018-01-04T02:02:02.702Z,96228.09
2018-01-04T02:03:07.684Z,96221.95
2018-01-04T02:04:12.643Z,96223.55
2018-01-04T02:05:17.631Z,96221.01
2018-01-04T02:06:22.637Z,96212.70
2018-01-04T02:07:27.629Z,96230.23
2018-01-04T02:08:32.878Z,96244.30
2018-01-04T02:09:37.874Z,96243.55
2018-01-04T02:10:42.885Z,96240.34
2018-01-04T02:11:47.907Z,96242.03
2018-01-04T02:12:52.869Z,96245.63
2018-01-04T02:13:57.893Z,96213.39
2018-01-04T02:15:03.193Z,96231.18
2018-01-04T02:16:08.427Z,96231.02
2018-01-04T02:17:13.403Z,96225.89
2018-01-04T02:18:22.532Z,96236.14
2018-01-04T02:21:35.895Z,96236.55
2018-01-04T02:23:00.036Z,96247.70
2018-01-04T02:24:09.174Z,96249.45
2018-01-04T02:25:19.209Z,96254.38
2018-01-04T02:26:28.292Z,96263.75
2018-01-04T02:29:39.354Z,96245.92
2018-01-04T02:32:50.334Z,96254.45
2018-01-04T02:34:30.691Z,96254.10
2018-01-04T02:35:39.889Z,96255.05
2018-01-04T02:38:50.939Z,96255.25
2018-01-04T02:41:01.556Z,96250.72
2018-01-04T02:42:11.613Z,96244.68
2018-01-04T02:43:35.760Z,96245.17
2018-01-04T02:44:42.073Z,96257.90
2018-01-04T02:45:51.161Z,96255.98
2018-01-04T02:46:56.010Z,96244.98
2018-01-04T02:48:00.893Z,96250.31
2018-01-04T02:49:05.727Z,96253.59
2018-01-04T02:50:10.607Z,96240.25
2018-01-04T02:51:15.482Z,96245.97
2018-01-04T02:52:20.612Z,96234.21
2018-01-04T02:53:25.485Z,96242.14
2018-01-04T02:54:30.430Z,96245.03
2018-01-04T02:55:35.348Z,96238.05
2018-01-04T02:56:40.293Z,96244.19
2018-01-04T02:57:45.254Z,96261.13
2018-01-04T02:58:50.470Z,96255.31
2018-01-04T02:59:55.409Z,96227.45
2018-01-04T03:01:00.362Z,96246.82
2018-01-04T03:02:05.316Z,96245.98
2018-01-04T03:03:10.306Z,96237.84
2018-01-04T03:04:15.303Z,96238.45
2018-01-04T03:05:20.606Z,96232.92
2018-01-04T03:06:25.534Z,96243.09
2018-01-04T03:07:30.433Z,96242.73
2018-01-04T03:08:35.283Z,96247.22
2018-01-04T03:09:40.174Z,96227.05
2018-01-04T03:10:45.007Z,96238.05
2018-01-04T03:11:50.142Z,96249.27
2018-01-04T03:12:55.050Z,96236.95
2018-01-04T03:13:59.898Z,96239.61
2018-01-04T03:15:04.816Z,96236.95
2018-01-04T03:16:09.744Z,96230.48
2018-01-04T03:17:14.615Z,96233.52
2018-01-04T03:18:19.869Z,96226.09
2018-01-04T03:19:24.801Z,96236.12
2018-01-04T03:20:29.753Z,96233.23
2018-01-04T03:21:38.673Z,96225.84
2018-01-04T03:22:47.573Z,96227.00
2018-01-04T03:23:52.789Z,96235.52
2018-01-04T03:25:01.709Z,96239.50
2018-01-04T03:28:12.462Z,96237.16
2018-01-04T03:29:31.849Z,96241.05
2018-01-04T03:30:40.801Z,96244.48
2018-01-04T03:33:51.726Z,96241.38
2018-01-04T03:37:04.441Z,96235.11
2018-01-04T03:40:17.237Z,96242.07
2018-01-04T03:41:26.451Z,96234.34
2018-01-04T03:44:38.207Z,96238.83
2018-01-04T03:47:49.253Z,96240.03
2018-01-04T03:48:58.146Z,96257.45
2018-01-04T03:50:07.030Z,96254.20
2018-01-04T03:51:16.815Z,96245.44
2018-01-04T03:52:36.634Z,96249.11
2018-01-04T03:53:45.770Z,96254.51
2018-01-04T03:54:54.617Z,96270.04
2018-01-04T03:58:06.571Z,96256.09
2018-01-04T03:59:15.627Z,96261.30
2018-01-04T04:00:24.668Z,96257.52
2018-01-04T04:05:48.341Z,96261.42
2018-01-04T04:06:57.284Z,96257.88
2018-01-04T04:08:06.269Z,96254.89
2018-01-04T04:09:11.284Z,96257.40
2018-01-04T04:10:16.189Z,96253.43
2018-01-04T04:11:21.171Z,96255.76
2018-01-04T04:12:26.406Z,96255.31
2018-01-04T04:13:31.350Z,96255.14
2018-01-04T04:14:36.291Z,96244.65
2018-01-04T04:15:41.221Z,96241.64
2018-01-04T04:16:46.240Z,96239.15
2018-01-04T04:17:51.142Z,96244.22
2018-01-04T04:18:56.370Z,96240.77
2018-01-04T04:20:01.516Z,96243.47
2018-01-04T04:21:06.449Z,96239.08
2018-01-04T04:22:11.318Z,96239.39
2018-01-04T04:23:16.279Z,96236.16
2018-01-04T04:24:21.293Z,96239.69
2018-01-04T04:25:26.500Z,96238.34
2018-01-04T04:26:31.519Z,96234.41
2018-01-04T04:27:36.361Z,96236.91
2018-01-04T04:28:41.166Z,96237.13
2018-01-04T04:29:46.064Z,96242.04
2018-01-04T04:30:50.860Z,96243.83
2018-01-04T04:31:55.972Z,96246.33
2018-01-04T04:33:00.776Z,96252.41
2018-01-04T04:34:05.574Z,96252.06
2018-01-04T04:35:10.475Z,96259.60
2018-01-04T04:36:15.175Z,96259.60
2018-01-04T04:37:20.261Z,96261.67
2018-01-04T04:38:25.471Z,96274.20
2018-01-04T04:39:30.408Z,96267.03
2018-01-04T04:40:35.329Z,96269.64
2018-01-04T04:41:40.279Z,96272.04
2018-01-04T04:42:45.274Z,96272.08
2018-01-04T04:43:50.261Z,96265.45
2018-01-04T04:44:55.508Z,96272.18
2018-01-04T04:46:00.442Z,96258.39
2018-01-04T04:47:05.391Z,96256.79
2018-01-04T04:48:10.309Z,96266.40
2018-01-04T04:49:15.250Z,96257.19
2018-01-04T04:50:20.200Z,96275.91
2018-01-04T04:51:25.413Z,96271.62
2018-01-04T04:52:30.351Z,96268.89
2018-01-04T04:53:35.330Z,96262.12
2018-01-04T04:54:40.355Z,96269.29
2018-01-04T04:55:45.287Z,96270.44
2018-01-04T04:56:50.236Z,96268.25
2018-01-04T04:57:55.334Z,96273.53
2018-01-04T04:59:00.117Z,96268.06
2018-01-04T05:00:04.906Z,96268.84
2018-01-04T05:01:09.697Z,96269.48
2018-01-04T05:02:14.466Z,96264.05
2018-01-04T05:03:19.222Z,96258.46
2018-01-04T05:04:24.367Z,96269.13
2018-01-04T05:05:29.209Z,96263.75
2018-01-04T05:06:34.013Z,96261.23
2018-01-04T05:07:39.619Z,96263.95
2018-01-04T05:08:44.609Z,96268.54
2018-01-04T05:09:49.609Z,96268.51
2018-01-04T05:10:54.614Z,96266.23
2018-01-04T05:11:59.538Z,96266.09
2018-01-04T05:13:04.504Z,96266.28
2018-01-04T05:14:09.450Z,96247.34
2018-01-04T05:15:14.402Z,96253.52
2018-01-04T05:16:19.369Z,96254.06
2018-01-04T05:17:24.701Z,96252.38
2018-01-04T05:18:29.706Z,96239.88
2018-01-04T05:19:34.576Z,96245.28
2018-01-04T05:20:39.560Z,96249.36
2018-01-04T05:21:44.576Z,96254.18
2018-01-04T05:22:49.557Z,96248.05
2018-01-04T05:23:54.854Z,96248.05
2018-01-04T05:24:59.829Z,96242.58
2018-01-04T05:26:04.788Z,96246.76
2018-01-04T05:27:10.385Z,96252.59
2018-01-04T05:28:15.399Z,96244.08
2018-01-04T05:29:20.373Z,96240.34
2018-01-04T05:30:25.696Z,96244.98
2018-01-04T05:31:30.976Z,96232.52
2018-01-04T05:32:35.962Z,96232.77
2018-01-04T05:33:40.805Z,96221.25
2018-01-04T05:34:46.201Z,96233.06
2018-01-04T05:35:51.113Z,96235.67
2018-01-04T05:36:56.257Z,96230.29
2018-01-04T05:38:01.108Z,96229.28
2018-01-04T05:39:05.994Z,96226.39
2018-01-04T05:40:10.931Z,96224.45
2018-01-04T05:41:15.776Z,96221.48
2018-01-04T05:42:21.710Z,96233.67
2018-01-04T05:43:27.217Z,96229.49
2018-01-04T05:44:32.036Z,96232.28
2018-01-04T05:45:36.954Z,96227.64
2018-01-04T05:46:41.800Z,96230.92
2018-01-04T05:47:46.717Z,96236.91
2018-01-04T05:48:51.616Z,96244.53
2018-01-04T05:49:56.766Z,96237.34
2018-01-04T05:51:01.743Z,96213.50
2018-01-04T05:52:06.615Z,96217.84
2018-01-04T05:53:11.383Z,96228.18
2018-01-04T05:54:16.199Z,96233.32
2018-01-04T05:55:21.024Z,96235.77
2018-01-04T05:56:26.340Z,96236.75
2018-01-04T05:57:31.269Z,96229.05
2018-01-04T05:58:36.204Z,96220.08
2018-01-04T05:59:41.264Z,96218.34
2018-01-04T06:00:46.183Z,96220.30
2018-01-04T06:01:51.121Z,96212.06
2018-01-04T06:02:56.602Z,96221.77
2018-01-04T06:04:01.632Z,96223.72
2018-01-04T06:05:06.614Z,96222.79
2018-01-04T06:06:11.482Z,96223.02
2018-01-04T06:07:16.439Z,96233.34
2018-01-04T06:08:21.355Z,96230.50
2018-01-04T06:09:27.039Z,96232.34
2018-01-04T06:10:32.047Z,96229.66
2018-01-04T06:11:37.042Z,96220.70
2018-01-04T06:12:42.004Z,96225.27
2018-01-04T06:13:46.992Z,96210.98
2018-01-04T06:14:52.007Z,96221.88
2018-01-04T06:15:57.298Z,96221.34
2018-01-04T06:17:02.280Z,96223.77
2018-01-04T06:18:07.284Z,96228.05
2018-01-04T06:19:12.308Z,96221.37
2018-01-04T06:20:17.382Z,96220.73
2018-01-04T06:21:22.346Z,96215.28
2018-01-04T06:22:27.658Z,96220.47
2018-01-04T06:23:32.602Z,96218.94
2018-01-04T06:24:37.556Z,96224.86
2018-01-04T06:25:42.495Z,96227.27
2018-01-04T06:26:47.308Z,96229.16
2018-01-04T06:27:52.159Z,96221.63
2018-01-04T06:28:57.288Z,96221.03
2018-01-04T06:30:02.100Z,96216.08
2018-01-04T06:31:07.114Z,96208.92
2018-01-04T06:32:12.174Z,96201.80
2018-01-04T06:33:17.143Z,96220.97
2018-01-04T06:34:22.100Z,96216.64
2018-01-04T06:35:27.668Z,96227.89
2018-01-04T06:36:32.905Z,96219.06
2018-01-04T06:37:37.824Z,96196.85
2018-01-04T06:38:42.848Z,96189.34
2018-01-04T06:39:47.844Z,96201.14
2018-01-04T06:40:52.841Z,96208.15
2018-01-04T06:41:58.135Z,96210.12
2018-01-04T06:43:03.028Z,96200.10
2018-01-04T06:44:07.874Z,96206.44
2018-01-04T06:45:12.798Z,96209.06
2018-01-04T06:46:17.639Z,96202.23
2018-01-04T06:47:22.480Z,96225.66
2018-01-04T06:48:27.596Z,96226.20
2018-01-04T06:49:33.380Z,96200.75
2018-01-04T06:50:38.408Z,96206.34
2018-01-04T06:51:43.427Z,96218.59
2018-01-04T06:52:48.403Z,96214.68
2018-01-04T06:53:53.320Z,96202.56
2018-01-04T06:54:58.672Z,96203.01
2018-01-04T06:56:03.607Z,96202.97
2018-01-04T06:57:08.511Z,96224.77
2018-01-04T06:58:13.414Z,96209.56
2018-01-04T06:59:18.339Z,96218.22
2018-01-04T07:00:23.226Z,96209.05
2018-01-04T07:01:28.539Z,96207.68
2018-01-04T07:02:33.619Z,96217.36
2018-01-04T07:03:38.645Z,96214.95
2018-01-04T07:04:43.668Z,96205.19
2018-01-04T07:05:48.687Z,96205.73
2018-01-04T07:06:53.647Z,96203.25
2018-01-04T07:07:59.304Z,96198.58
2018-01-04T07:09:04.513Z,96195.09
2018-01-04T07:10:09.659Z,96193.31
2018-01-04T07:11:14.654Z,96189.89
2018-01-04T07:12:19.628Z,96186.16
2018-01-04T07:13:24.666Z,96193.77
2018-01-04T07:14:30.098Z,96191.81
2018-01-04T07:15:35.186Z,96192.96
2018-01-04T07:16:40.215Z,96191.20
2018-01-04T07:17:45.255Z,96194.19
2018-01-04T07:18:50.250Z,96190.50
2018-01-04T07:19:56.153Z,96195.55
2018-01-04T07:21:01.548Z,96191.72
2018-01-04T07:22:06.563Z,96191.46
2018-01-04T07:23:11.926Z,96192.87
2018-01-04T07:24:16.883Z,96188.39
2018-01-04T07:25:21.782Z,96188.70
2018-01-04T07:26:26.825Z,96189.55
2018-01-04T07:27:32.077Z,96187.95
2018-01-04T07:28:37.160Z,96186.27
2018-01-04T07:29:42.142Z,96194.98
2018-01-04T07:30:47.084Z,96194.23
2018-01-04T07:31:51.994Z,96189.41
2018-01-04T07:32:56.774Z,96190.80
2018-01-04T07:34:02.030Z,96195.08
2018-01-04T07:35:06.866Z,96192.05
2018-01-04T07:36:11.650Z,96195.47
2018-01-04T07:37:16.504Z,96195.56
2018-01-04T07:38:21.428Z,96197.33
2018-01-04T07:39:26.122Z,96199.86
2018-01-04T07:40:31.349Z,96193.78
2018-01-04T07:41:36.304Z,96196.72
2018-01-04T07:42:41.457Z,96200.71
2018-01-04T07:43:46.358Z,96195.28
2018-01-04T07:44:51.393Z,96197.87
2018-01-04T07:45:56.390Z,96197.37
2018-01-04T07:47:01.801Z,96198.97
2018-01-04T07:48:06.828Z,96192.66
2018-01-04T07:49:11.857Z,96197.28
2018-01-04T07:50:16.706Z,96193.88
2018-01-04T07:51:21.574Z,96193.03
2018-01-04T07:52:26.493Z,96191.65
2018-01-04T07:53:31.762Z,96193.69
2018-01-04T07:54:36.679Z,96194.33
2018-01-04T07:55:41.574Z,96199.77
2018-01-04T07:56:46.470Z,96204.45
2018-01-04T07:57:51.338Z,96202.36
2018-01-04T07:58:56.297Z,96206.98
2018-01-04T08:00:02.131Z,96217.99
2018-01-04T08:01:07.118Z,96210.92
2018-01-04T08:02:12.171Z,96215.31
2018-01-04T08:03:17.177Z,96215.16
2018-01-04T08:04:22.280Z,96212.17
2018-01-04T08:05:27.341Z,96205.99
2018-01-04T08:06:32.726Z,96209.28
2018-01-04T08:07:37.721Z,96215.59
2018-01-04T08:08:42.640Z,96213.91
2018-01-04T08:09:47.700Z,96210.29
2018-01-04T08:10:52.593Z,96215.95
2018-01-04T08:11:57.497Z,96224.22
2018-01-04T08:13:02.820Z,96217.85
2018-01-04T08:14:07.764Z,96219.26
2018-01-04T08:15:12.648Z,96223.13
2018-01-04T08:16:17.663Z,96223.09
2018-01-04T08:17:22.877Z,96223.09
2018-01-04T08:18:28.055Z,96229.31
2018-01-04T08:19:33.360Z,96226.07
2018-01-04T08:20:42.290Z,96221.75
2018-01-04T08:21:48.070Z,96222.36
2018-01-04T08:22:52.955Z,96221.20
2018-01-04T08:23:57.894Z,96228.21
2018-01-04T08:25:03.139Z,96221.19
2018-01-04T08:26:08.595Z,96223.13
2018-01-04T08:27:13.567Z,96231.26
2018-01-04T08:28:18.473Z,96225.98
2018-01-04T08:29:23.501Z,96213.22
2018-01-04T08:30:28.294Z,96210.38
2018-01-04T08:31:36.851Z,96216.42
2018-01-04T08:32:42.136Z,96212.23
2018-01-04T08:33:47.089Z,96220.34
2018-01-04T08:34:52.186Z,96217.12
2018-01-04T08:35:57.179Z,96210.41
2018-01-04T08:37:02.210Z,96207.16
2018-01-04T08:38:07.198Z,96207.56
2018-01-04T08:39:12.551Z,96206.57
2018-01-04T08:40:17.512Z,96207.02
2018-01-04T08:41:22.553Z,96210.75
2018-01-04T08:42:27.945Z,96210.59
2018-01-04T08:43:32.825Z,96216.67
2018-01-04T08:44:38.167Z,96216.39
2018-01-04T08:45:43.047Z,96206.42
2018-01-04T08:46:47.963Z,96207.91
2018-01-04T08:47:52.910Z,96209.11
2018-01-04T08:48:57.817Z,96207.86
2018-01-04T08:50:03.539Z,96196.17
2018-01-04T08:51:08.753Z,96205.42
2018-01-04T08:52:13.690Z,96197.91
2018-01-04T08:53:18.485Z,96197.55
2018-01-04T08:54:23.384Z,96197.45
2018-01-04T08:55:28.304Z,96199.85
2018-01-04T08:56:33.188Z,96202.10
2018-01-04T08:57:38.521Z,96190.44
2018-01-04T08:58:44.373Z,96194.97
2018-01-04T08:59:49.228Z,96200.79
2018-01-04T09:00:54.122Z,96196.02
2018-01-04T09:01:59.115Z,96194.44
2018-01-04T09:03:04.168Z,96198.08
2018-01-04T09:04:09.410Z,96194.98
2018-01-04T09:05:14.317Z,96184.91
2018-01-04T09:06:19.847Z,96206.42
2018-01-04T09:07:24.774Z,96198.56
2018-01-04T09:08:29.689Z,96193.09
2018-01-04T09:09:34.576Z,96185.02
2018-01-04T09:10:40.246Z,96178.73
2018-01-04T09:11:45.092Z,96191.98
2018-01-04T09:12:49.991Z,96199.01
2018-01-04T09:13:54.835Z,96193.88
2018-01-04T09:14:59.693Z,96188.30
2018-01-04T09:16:04.565Z,96191.14
2018-01-04T09:17:09.773Z,96177.09
2018-01-04T09:18:14.674Z,96170.61
2018-01-04T09:19:19.585Z,96188.34
2018-01-04T09:20:24.335Z,96177.39
2018-01-04T09:21:29.103Z,96173.07
2018-01-04T09:22:33.810Z,96173.07
2018-01-04T09:23:38.800Z,96167.93
2018-01-04T09:24:43.527Z,96176.40
2018-01-04T09:25:48.228Z,96169.57
2018-01-04T09:26:53.106Z,96168.93
2018-01-04T09:27:58.025Z,96168.69
2018-01-04T09:29:02.919Z,96166.69
2018-01-04T09:30:08.361Z,96162.41
2018-01-04T09:31:13.212Z,96172.92
2018-01-04T09:32:18.121Z,96170.53
2018-01-04T09:33:23.093Z,96159.52
2018-01-04T09:34:28.958Z,96159.42
2018-01-04T09:35:33.892Z,96161.27
2018-01-04T09:36:39.141Z,96160.77
2018-01-04T09:37:44.054Z,96139.40
2018-01-04T09:38:49.067Z,96162.80
2018-01-04T09:39:53.930Z,96158.81
2018-01-04T09:40:58.962Z,96162.41
2018-01-04T09:42:03.965Z,96164.20
2018-01-04T09:43:09.216Z,96147.81
2018-01-04T09:44:14.153Z,96144.13
2018-01-04T09:45:19.096Z,96163.25
2018-01-04T09:46:24.075Z,96156.62
2018-01-04T09:47:29.005Z,96152.84
2018-01-04T09:48:34.552Z,96156.86
2018-01-04T09:49:39.721Z,96140.48
2018-01-04T09:50:45.169Z,96157.52
2018-01-04T09:51:50.178Z,96154.77
2018-01-04T09:52:55.168Z,96154.91
2018-01-04T09:54:00.219Z,96155.81
2018-01-04T09:55:05.172Z,96143.97
2018-01-04T09:56:10.354Z,96142.63
2018-01-04T09:57:15.358Z,96140.90
2018-01-04T09:58:20.546Z,96141.44
2018-01-04T09:59:25.665Z,96138.91
2018-01-04T10:00:30.926Z,96147.31
2018-01-04T10:01:36.010Z,96151.50
2018-01-04T10:02:40.995Z,96145.92
2018-01-04T10:03:46.008Z,96139.70
2018-01-04T10:04:51.016Z,96136.86
2018-01-04T10:05:56.054Z,96136.52
2018-01-04T10:07:01.236Z,96135.45
2018-01-04T10:08:08.576Z,96127.05
2018-01-04T10:09:13.606Z,96126.34
2018-01-04T10:10:18.531Z,96126.59
2018-01-04T10:11:23.463Z,96123.52
2018-01-04T10:12:28.437Z,96127.80
2018-01-04T10:13:33.606Z,96124.70
2018-01-04T10:14:38.523Z,96128.89
2018-01-04T10:15:43.441Z,96121.47
2018-01-04T10:16:48.406Z,96123.91
2018-01-04T10:17:53.300Z,96119.78
2018-01-04T10:18:58.160Z,96119.03
2018-01-04T10:20:03.893Z,96125.11
2018-01-04T10:21:08.832Z,96119.28
2018-01-04T10:22:13.657Z,96116.50
2018-01-04T10:23:18.455Z,96114.70
2018-01-04T10:24:23.317Z,96112.02
2018-01-04T10:25:28.071Z,96117.69
2018-01-04T10:26:32.863Z,96115.98
2018-01-04T10:27:37.687Z,96120.81
2018-01-04T10:28:42.566Z,96115.92
2018-01-04T10:29:47.477Z,96108.41
2018-01-04T10:30:52.374Z,96103.77
2018-01-04T10:31:57.718Z,96098.73
2018-01-04T10:33:02.623Z,96098.24
2018-01-04T10:34:07.531Z,96096.90
2018-01-04T10:35:12.417Z,96098.73
2018-01-04T10:36:17.373Z,96099.29
2018-01-04T10:37:22.257Z,96098.59
2018-01-04T10:38:27.463Z,96098.59
2018-01-04T10:39:32.350Z,96101.23
2018-01-04T10:40:37.316Z,96102.02
2018-01-04T10:41:42.294Z,96097.94
2018-01-04T10:42:47.304Z,96099.28
2018-01-04T10:43:55.609Z,96091.26
2018-01-04T10:45:01.040Z,96082.64
2018-01-04T10:46:11.124Z,96080.89
2018-01-04T10:47:16.138Z,96088.38
2018-01-04T10:48:21.114Z,96085.88
2018-01-04T10:49:26.085Z,96082.59
2018-01-04T10:50:31.021Z,96085.97
2018-01-04T10:51:36.446Z,96085.67
2018-01-04T10:52:41.431Z,96076.00
2018-01-04T10:53:46.445Z,96075.45
2018-01-04T10:54:51.506Z,96069.66
2018-01-04T10:55:56.335Z,96071.92
2018-01-04T10:57:01.406Z,96070.47
2018-01-04T10:58:06.736Z,96060.16
2018-01-04T10:59:11.616Z,96057.59
2018-01-04T11:00:16.636Z,96055.95
2018-01-04T11:01:21.595Z,96057.99
2018-01-04T11:02:26.548Z,96060.50
2018-01-04T11:03:31.455Z,96051.36
2018-01-04T11:04:36.807Z,96046.13
2018-01-04T11:05:41.675Z,96045.16
2018-01-04T11:06:46.742Z,96039.55
2018-01-04T11:07:51.661Z,96036.66
2018-01-04T11:08:56.534Z,96035.56
2018-01-04T11:10:01.371Z,96036.45
2018-01-04T11:11:06.577Z,96023.64
2018-01-04T11:12:11.688Z,96015.23
2018-01-04T11:13:17.016Z,96014.23
2018-01-04T11:14:21.915Z,96014.63
2018-01-04T11:15:26.783Z,96012.08
2018-01-04T11:16:32.411Z,96007.95
2018-01-04T11:17:37.644Z,96002.52
2018-01-04T11:18:42.565Z,96001.46
2018-01-04T11:19:47.501Z,96003.95
2018-01-04T11:20:52.400Z,95999.21
2018-01-04T11:21:57.356Z,95995.58
2018-01-04T11:23:02.352Z,96005.20
2018-01-04T11:24:07.679Z,96001.25
2018-01-04T11:25:12.667Z,96002.73
2018-01-04T11:26:17.646Z,96000.64
2018-01-04T11:27:22.606Z,95995.45
2018-01-04T11:28:27.616Z,95996.20
2018-01-04T11:29:32.584Z,96000.84
2018-01-04T11:30:37.656Z,95997.19
2018-01-04T11:31:42.674Z,95996.05
2018-01-04T11:32:47.670Z,95997.80
2018-01-04T11:33:52.665Z,95996.28
2018-01-04T11:34:57.748Z,95994.48
2018-01-04T11:36:02.760Z,95988.94
2018-01-04T11:37:07.953Z,95988.27
2018-01-04T11:38:12.811Z,95984.72
2018-01-04T11:39:17.804Z,95987.03
2018-01-04T11:40:22.838Z,95987.88
2018-01-04T11:41:27.855Z,95978.94
2018-01-04T11:42:32.844Z,95983.39
2018-01-04T11:43:38.158Z,95979.20
2018-01-04T11:44:43.145Z,95969.97
2018-01-04T11:45:48.207Z,95964.41
2018-01-04T11:46:53.226Z,95958.60
2018-01-04T11:47:58.325Z,95963.42
2018-01-04T11:49:03.407Z,95964.89
2018-01-04T11:50:08.762Z,95962.00
2018-01-04T11:51:14.241Z,95953.69
2018-01-04T11:52:19.295Z,95958.28
2018-01-04T11:53:24.384Z,95949.95
2018-01-04T11:54:29.356Z,95952.16
2018-01-04T11:55:34.696Z,95947.75
2018-01-04T11:56:40.146Z,95947.30
2018-01-04T11:57:45.119Z,95939.40
2018-01-04T11:58:50.266Z,95933.03
2018-01-04T11:59:55.276Z,95929.92
2018-01-04T12:01:00.580Z,95922.28
2018-01-04T12:02:05.415Z,95928.67
2018-01-04T12:03:10.530Z,95918.44
2018-01-04T12:04:15.255Z,95918.83
2018-01-04T12:05:20.116Z,95914.51
2018-01-04T12:06:25.054Z,95906.81
2018-01-04T12:07:30.121Z,95907.22
2018-01-04T12:08:35.096Z,95902.81
2018-01-04T12:09:40.379Z,95899.15
2018-01-04T12:10:45.411Z,95896.27
2018-01-04T12:11:50.522Z,95893.83
2018-01-04T12:12:55.485Z,95892.70
2018-01-04T12:14:00.415Z,95878.83
2018-01-04T12:15:05.381Z,95882.57
2018-01-04T12:16:10.551Z,95885.91
2018-01-04T12:17:15.552Z,95882.09
2018-01-04T12:18:20.477Z,95881.56
2018-01-04T12:19:25.476Z,95879.52
2018-01-04T12:20:30.514Z,95878.23
2018-01-04T12:21:35.509Z,95878.39
2018-01-04T12:22:40.767Z,95874.08
2018-01-04T12:23:45.798Z,95867.68
2018-01-04T12:24:51.476Z,95862.64
2018-01-04T12:25:56.824Z,95855.03
2018-01-04T12:27:03.648Z,95853.87
2018-01-04T12:28:08.635Z,95850.08
2018-01-04T12:29:14.601Z,95851.02
2018-01-04T12:30:19.521Z,95846.43
2018-01-04T12:31:24.539Z,95845.23
2018-01-04T12:32:29.513Z,95843.09
2018-01-04T12:33:34.324Z,95839.13
2018-01-04T12:34:39.664Z,95843.38
2018-01-04T12:35:45.163Z,95838.16
2018-01-04T12:36:51.190Z,95843.99
2018-01-04T12:37:57.805Z,95834.52
2018-01-04T12:39:04.628Z,95833.67
2018-01-04T12:40:10.566Z,95838.86
2018-01-04T12:41:16.278Z,95839.50
2018-01-04T12:42:22.134Z,95833.38
2018-01-04T12:43:27.496Z,95832.98
2018-01-04T12:44:33.743Z,95831.05
2018-01-04T12:45:40.005Z,95825.32
2018-01-04T12:46:45.083Z,95823.63
2018-01-04T12:47:50.606Z,95817.05
2018-01-04T12:48:56.565Z,95804.98
2018-01-04T12:50:03.354Z,95807.92
2018-01-04T12:51:08.783Z,95804.02
2018-01-04T12:52:13.766Z,95803.52
2018-01-04T12:53:19.625Z,95801.30
2018-01-04T12:54:25.001Z,95790.38
2018-01-04T12:55:31.156Z,95787.80
2018-01-04T12:56:36.572Z,95789.36
2018-01-04T12:57:43.627Z,95784.93
2018-01-04T12:58:48.678Z,95783.58
2018-01-04T12:59:53.790Z,95779.86
2018-01-04T13:00:58.733Z,95778.59
2018-01-04T13:02:04.591Z,95771.14
2018-01-04T13:03:10.166Z,95769.47
2018-01-04T13:04:15.093Z,95770.28
2018-01-04T13:05:20.111Z,95766.02
2018-01-04T13:06:25.196Z,95761.93
2018-01-04T13:07:30.219Z,95763.23
2018-01-04T13:08:35.935Z,95763.66
2018-01-04T13:09:40.956Z,95752.02
2018-01-04T13:10:45.957Z,95755.38
2018-01-04T13:11:51.022Z,95750.39
2018-01-04T13:12:56.042Z,95749.30
2018-01-04T13:14:01.237Z,95742.95
2018-01-04T13:15:06.689Z,95740.84
2018-01-04T13:16:11.702Z,95741.36
2018-01-04T13:17:17.731Z,95739.57